createdAt,value
2018-07-03T00:00:04.077Z,98000.00
2018-07-03T00:04:06.312Z,98001.00
2018-07-03T00:08:08.492Z,97997.00
2018-07-03T00:12:11.511Z,98000.00
2018-07-03T00:16:19.379Z,98001.00
2018-07-03T00:20:22.048Z,97989.00
2018-07-03T00:24:24.252Z,97998.00
2018-07-03T00:28:26.407Z,97994.00
2018-07-03T00:32:29.039Z,97988.00
2018-07-03T00:36:31.172Z,97988.00
2018-07-03T00:40:33.695Z,97986.00
2018-07-03T00:44:35.812Z,97982.00
2018-07-03T00:48:38.044Z,97978.00
2018-07-03T00:52:40.197Z,97982.00
2018-07-03T00:56:51.885Z,97979.00
2018-07-03T01:00:54.028Z,97971.00
2018-07-03T01:04:56.174Z,97966.00
2018-07-03T01:08:58.420Z,97976.00
2018-07-03T01:13:00.631Z,97972.00
2018-07-03T01:17:03.213Z,97972.00
2018-07-03T01:21:05.676Z,97974.00
2018-07-03T01:25:07.816Z,97976.00
2018-07-03T01:29:10.008Z,97979.00
2018-07-03T01:33:12.202Z,97971.00
2018-07-03T01:37:14.638Z,97978.00
2018-07-03T01:41:16.820Z,97982.00
2018-07-03T01:45:19.022Z,97982.00
2018-07-03T01:49:21.159Z,97979.00
2018-07-03T01:53:24.475Z,97973.00
2018-07-03T01:57:26.606Z,97969.00
2018-07-03T02:01:29.088Z,97967.00
2018-07-03T02:05:31.327Z,97972.00
2018-07-03T02:09:34.324Z,97965.00
2018-07-03T02:13:36.615Z,97969.00
2018-07-03T02:17:38.728Z,97971.00
2018-07-03T02:21:40.892Z,97961.00
2018-07-03T02:25:43.023Z,97959.00
2018-07-03T02:29:45.218Z,97962.00
2018-07-03T02:33:47.361Z,97954.00
2018-07-03T02:37:49.613Z,97960.00
2018-07-03T02:41:51.848Z,97951.00
2018-07-03T02:45:54.705Z,97953.00
2018-07-03T02:49:56.879Z,97958.00
2018-07-03T02:53:59.079Z,97954.00
2018-07-03T02:58:01.238Z,97955.00
2018-07-03T03:02:03.958Z,97957.00
2018-07-03T03:06:07.351Z,97964.00
2018-07-03T03:10:09.527Z,97949.00
2018-07-03T03:14:11.646Z,97959.00
2018-07-03T03:18:14.671Z,97959.00
2018-07-03T03:22:16.865Z,97952.00
2018-07-03T03:26:19.071Z,97959.00
2018-07-03T03:30:21.237Z,97958.00
2018-07-03T03:34:23.413Z,97965.00
2018-07-03T03:38:26.037Z,97978.00
2018-07-03T03:42:28.235Z,97974.00
2018-07-03T03:46:30.509Z,97980.00
2018-07-03T03:50:32.818Z,97985.00
2018-07-03T03:54:34.987Z,97989.00
2018-07-03T03:58:37.158Z,97981.00
2018-07-03T04:02:41.248Z,97980.00
2018-07-03T04:06:43.473Z,97983.00
2018-07-03T04:10:45.684Z,97992.00
2018-07-03T04:14:47.926Z,98000.00
2018-07-03T04:18:50.117Z,97993.00
2018-07-03T04:22:52.381Z,97995.00
2018-07-03T04:26:54.906Z,97995.00
2018-07-03T04:30:57.107Z,97985.00
2018-07-03T04:34:59.335Z,97985.00
2018-07-03T04:39:01.510Z,97985.00
2018-07-03T04:43:04.731Z,97992.00
2018-07-03T04:47:06.879Z,97999.00
2018-07-03T04:51:10.181Z,98000.00
2018-07-03T04:55:13.110Z,97986.00
2018-07-03T04:59:16.156Z,97992.00
2018-07-03T05:03:18.292Z,98000.00
2018-07-03T05:07:20.514Z,97999.00
2018-07-03T05:11:23.766Z,97999.00
2018-07-03T05:15:26.046Z,97998.00
2018-07-03T05:19:29.780Z,98009.00
2018-07-03T05:23:31.931Z,98003.00
2018-07-03T05:27:34.067Z,98001.00
2018-07-03T05:31:37.825Z,98005.00
2018-07-03T05:35:39.968Z,98000.00
2018-07-03T05:39:42.161Z,98005.00
2018-07-03T05:43:44.287Z,98000.00
2018-07-03T05:47:46.655Z,98004.00
2018-07-03T05:51:48.808Z,98002.00
2018-07-03T05:55:51.023Z,98005.00
2018-07-03T05:59:53.223Z,98010.00
2018-07-03T06:03:55.381Z,98026.00
2018-07-03T06:07:57.597Z,98024.00
2018-07-03T06:11:59.737Z,98023.00
2018-07-03T06:16:02.994Z,98022.00
2018-07-03T06:20:06.795Z,98026.00
2018-07-03T06:24:09.049Z,98034.00
2018-07-03T06:28:11.222Z,98033.00
2018-07-03T06:32:13.382Z,98038.00
2018-07-03T06:36:15.557Z,98037.00
2018-07-03T06:40:17.759Z,98039.00
2018-07-03T06:44:19.963Z,98031.00
2018-07-03T06:48:22.149Z,98029.00
2018-07-03T06:52:24.947Z,98041.00
2018-07-03T06:56:27.450Z,98036.00
2018-07-03T07:00:29.701Z,98040.00
2018-07-03T07:04:32.432Z,98043.00
2018-07-03T07:08:34.968Z,98037.00
2018-07-03T07:12:37.108Z,98038.00
2018-07-03T07:16:39.289Z,98039.00
2018-07-03T07:20:42.033Z,98032.00
2018-07-03T07:24:44.279Z,98037.00
2018-07-03T07:28:46.483Z,98036.00
2018-07-03T07:32:48.779Z,98028.00
2018-07-03T07:36:51.011Z,98032.00
2018-07-03T07:40:53.283Z,98032.00
2018-07-03T07:44:55.445Z,98035.00
2018-07-03T07:48:57.617Z,98028.00
2018-07-03T07:52:59.745Z,98044.00
2018-07-03T07:57:02.829Z,98047.00
2018-07-03T08:01:05.436Z,98044.00
2018-07-03T08:05:08.972Z,98039.00
2018-07-03T08:09:11.704Z,98038.00
2018-07-03T08:13:14.309Z,98048.00
2018-07-03T08:17:16.509Z,98046.00
2018-07-03T08:21:20.508Z,98047.00
2018-07-03T08:25:22.908Z,98045.00
2018-07-03T08:29:25.059Z,98043.00
2018-07-03T08:33:27.198Z,98049.00
2018-07-03T08:37:29.364Z,98047.00
2018-07-03T08:41:31.533Z,98051.00
2018-07-03T08:45:34.880Z,98058.00
2018-07-03T08:49:37.913Z,98049.00
2018-07-03T08:53:40.205Z,98052.00
2018-07-03T08:57:42.386Z,98048.00
2018-07-03T09:01:44.555Z,98053.00
2018-07-03T09:05:47.643Z,98064.00
2018-07-03T09:09:49.973Z,98062.00
2018-07-03T09:13:54.006Z,98066.00
2018-07-03T09:17:56.280Z,98061.00
2018-07-03T09:21:58.818Z,98067.00
2018-07-03T09:26:00.960Z,98059.00
2018-07-03T09:30:04.176Z,98053.00
2018-07-03T09:34:06.383Z,98048.00
2018-07-03T09:38:08.568Z,98050.00
2018-07-03T09:42:10.973Z,98041.00
2018-07-03T09:46:13.611Z,98052.00
2018-07-03T09:50:16.566Z,98038.00
2018-07-03T09:54:18.968Z,98048.00
2018-07-03T09:58:21.155Z,98045.00
2018-07-03T10:02:23.379Z,98047.00
2018-07-03T10:06:25.548Z,98043.00
2018-07-03T10:10:27.807Z,98031.00
2018-07-03T10:14:30.071Z,98052.00
2018-07-03T10:18:32.240Z,98045.00
2018-07-03T10:22:34.399Z,98056.00
2018-07-03T10:26:36.568Z,98050.00
2018-07-03T10:30:38.720Z,98047.00
2018-07-03T10:34:40.892Z,98051.00
2018-07-03T10:38:43.225Z,98036.00
2018-07-03T10:42:45.513Z,98041.00
2018-07-03T10:46:48.386Z,98036.00
2018-07-03T10:50:50.622Z,98030.00
2018-07-03T10:54:52.775Z,98039.00
2018-07-03T10:58:55.639Z,98034.00
2018-07-03T11:02:58.295Z,98028.00
2018-07-03T11:07:00.494Z,98013.00
2018-07-03T11:11:02.763Z,98028.00
2018-07-03T11:15:05.031Z,98022.00
2018-07-03T11:19:07.200Z,98022.00
2018-07-03T11:23:10.631Z,98021.00
2018-07-03T11:27:14.294Z,98017.00
2018-07-03T11:31:16.663Z,98014.00
2018-07-03T11:35:18.846Z,98010.00
2018-07-03T11:39:21.021Z,98008.00
2018-07-03T11:43:23.994Z,98005.00
2018-07-03T11:47:26.307Z,98000.00
2018-07-03T11:51:28.440Z,97999.00
2018-07-03T11:55:30.584Z,97997.00
2018-07-03T11:59:32.881Z,98003.00
2018-07-03T12:03:35.056Z,97996.00
2018-07-03T12:07:37.248Z,97988.00
2018-07-03T12:11:39.423Z,97992.00
2018-07-03T12:15:41.639Z,97993.00
2018-07-03T12:19:43.964Z,97990.00
2018-07-03T12:23:46.658Z,97981.00
2018-07-03T12:27:49.979Z,97976.00
2018-07-03T12:31:52.196Z,97983.00
2018-07-03T12:35:54.595Z,97982.00
2018-07-03T12:39:56.835Z,97976.00
2018-07-03T12:43:59.792Z,97986.00
2018-07-03T12:48:02.013Z,97981.00
2018-07-03T12:52:05.484Z,97981.00
2018-07-03T12:56:08.284Z,97972.00
2018-07-03T13:00:10.431Z,97979.00
2018-07-03T13:04:12.549Z,97963.00
2018-07-03T13:08:14.848Z,97962.00
2018-07-03T13:12:17.095Z,97953.00
2018-07-03T13:16:19.264Z,97949.00
2018-07-03T13:20:21.451Z,97961.00
2018-07-03T13:24:23.623Z,97954.00
2018-07-03T13:28:26.143Z,97950.00
2018-07-03T13:32:28.316Z,97958.00
2018-07-03T13:36:30.909Z,97949.00
2018-07-03T13:40:33.181Z,97943.00
2018-07-03T13:44:35.326Z,97941.00
2018-07-03T13:48:37.552Z,97947.00
2018-07-03T13:52:39.725Z,97946.00
2018-07-03T13:56:43.079Z,97940.00
2018-07-03T14:00:45.284Z,97937.00
2018-07-03T14:04:47.447Z,97933.00
2018-07-03T14:08:49.653Z,97929.00
2018-07-03T14:12:51.966Z,97924.00
2018-07-03T14:16:55.041Z,97924.00
2018-07-03T14:20:59.008Z,97923.00
2018-07-03T14:25:01.660Z,97912.00
2018-07-03T14:29:04.106Z,97923.00
2018-07-03T14:33:07.795Z,97916.00
2018-07-03T14:37:11.090Z,97908.00
2018-07-03T14:41:13.542Z,97908.00
2018-07-03T14:45:15.901Z,97909.00
2018-07-03T14:49:18.060Z,97922.00
2018-07-03T14:53:20.259Z,97902.00
2018-07-03T14:57:22.488Z,97901.00
2018-07-03T15:01:24.708Z,97903.00
2018-07-03T15:05:26.889Z,97893.00
2018-07-03T15:09:29.052Z,97898.00
2018-07-03T15:13:31.284Z,97894.00
2018-07-03T15:17:33.469Z,97890.00
2018-07-03T15:21:35.726Z,97885.00
2018-07-03T15:25:37.846Z,97893.00
2018-07-03T15:29:40.571Z,97881.00
2018-07-03T15:33:42.840Z,97871.00
2018-07-03T15:37:45.932Z,97872.00
2018-07-03T15:41:48.103Z,97872.00
2018-07-03T15:45:50.413Z,97864.00
2018-07-03T15:49:52.685Z,97874.00
2018-07-03T15:53:55.853Z,97859.00
2018-07-03T15:57:58.223Z,97857.00
2018-07-03T16:02:00.429Z,97861.00
2018-07-03T16:06:12.745Z,97853.00
2018-07-03T16:10:15.062Z,97850.00
2018-07-03T16:14:17.283Z,97852.00
2018-07-03T16:18:19.533Z,97859.00
2018-07-03T16:40:48.896Z,97856.00
2018-07-03T16:44:51.136Z,97852.00
2018-07-03T16:48:54.405Z,97856.00
2018-07-03T16:52:56.748Z,97862.00
2018-07-03T16:56:59.016Z,97845.00
2018-07-03T17:01:01.188Z,97843.00
2018-07-03T17:05:03.390Z,97849.00
2018-07-03T17:09:08.380Z,97840.00
2018-07-03T17:13:10.515Z,97844.00
2018-07-03T17:17:12.733Z,97837.00
2018-07-03T17:21:14.989Z,97851.00
2018-07-03T17:25:17.242Z,97845.00
2018-07-03T17:29:19.465Z,97844.00
2018-07-03T17:33:21.693Z,97847.00
2018-07-03T17:37:25.061Z,97848.00
2018-07-03T17:41:38.788Z,97841.00
2018-07-03T17:45:51.212Z,97839.00
2018-07-03T17:49:53.420Z,97836.00
2018-07-03T17:53:55.634Z,97833.00
2018-07-03T17:57:59.269Z,97838.00
2018-07-03T18:02:01.501Z,97836.00
2018-07-03T18:06:03.760Z,97834.00
2018-07-03T18:10:05.993Z,97835.00
2018-07-03T18:14:08.185Z,97835.00
2018-07-03T18:18:10.420Z,97838.00
2018-07-03T18:22:12.651Z,97848.00
2018-07-03T18:26:14.863Z,97850.00
2018-07-03T18:30:17.128Z,97844.00
2018-07-03T18:34:19.341Z,97848.00
2018-07-03T18:38:21.531Z,97855.00
2018-07-03T18:42:23.681Z,97846.00
2018-07-03T18:46:25.823Z,97849.00
2018-07-03T18:50:28.019Z,97848.00
2018-07-03T18:54:30.297Z,97853.00
2018-07-03T18:58:32.409Z,97858.00
2018-07-03T19:02:34.578Z,97857.00
2018-07-03T19:06:36.726Z,97859.00
2018-07-03T19:10:39.488Z,97858.00
2018-07-03T19:14:41.660Z,97866.00
2018-07-03T19:18:43.851Z,97860.00
2018-07-03T19:22:46.154Z,97853.00
2018-07-03T19:26:48.347Z,97850.00
2018-07-03T19:30:50.584Z,97865.00
2018-07-03T19:34:52.816Z,97867.00
2018-07-03T19:38:55.021Z,97870.00
2018-07-03T19:43:35.534Z,97866.00
2018-07-03T19:47:37.747Z,97878.00
2018-07-03T19:51:39.912Z,97876.00
2018-07-03T19:55:42.102Z,97878.00
2018-07-03T19:59:44.294Z,97872.00
2018-07-03T20:03:46.479Z,97868.00
2018-07-03T20:07:48.656Z,97866.00
2018-07-03T20:11:50.814Z,97871.00
2018-07-03T20:15:52.972Z,97869.00
2018-07-03T20:19:55.188Z,97866.00
2018-07-03T20:23:57.428Z,97872.00
2018-07-03T20:28:00.295Z,97870.00
2018-07-03T20:32:02.556Z,97868.00
2018-07-03T20:36:04.839Z,97874.00
2018-07-03T20:40:07.087Z,97868.00
2018-07-03T20:44:09.290Z,97867.00
2018-07-03T20:48:11.531Z,97865.00
2018-07-03T20:52:14.912Z,97869.00
2018-07-03T20:56:17.128Z,97873.00
2018-07-03T21:00:19.349Z,97865.00
2018-07-03T21:04:21.545Z,97877.00
2018-07-03T21:08:25.219Z,97864.00
2018-07-03T21:12:27.393Z,97862.00
2018-07-03T21:16:29.579Z,97862.00
2018-07-03T21:20:31.887Z,97859.00
2018-07-03T21:24:34.079Z,97856.00
2018-07-03T21:28:36.282Z,97849.00
2018-07-03T21:32:38.471Z,97844.00
2018-07-03T21:36:40.726Z,97848.00
2018-07-03T21:40:42.951Z,97839.00
2018-07-03T21:44:45.117Z,97844.00
2018-07-03T21:48:48.169Z,97836.00
2018-07-03T21:52:54.234Z,97835.00
2018-07-03T21:56:56.464Z,97832.00
2018-07-03T22:00:58.612Z,97837.00
2018-07-03T22:05:00.792Z,97841.00
2018-07-03T22:09:04.036Z,97842.00
2018-07-03T22:13:06.218Z,97841.00
2018-07-03T22:17:09.182Z,97847.00
2018-07-03T22:21:11.361Z,97851.00
2018-07-03T22:25:13.538Z,97858.00
2018-07-03T22:29:15.721Z,97859.00
2018-07-03T22:33:18.875Z,97860.00
2018-07-03T22:37:21.092Z,97858.00
2018-07-03T22:41:23.260Z,97858.00
2018-07-03T22:45:25.480Z,97861.00
2018-07-03T22:49:27.785Z,97864.00
2018-07-03T22:53:29.984Z,97865.00
2018-07-03T22:57:32.156Z,97868.00
2018-07-03T23:01:34.308Z,97868.00
2018-07-03T23:05:36.471Z,97869.00
2018-07-03T23:09:38.639Z,97880.00
2018-07-03T23:13:40.784Z,97878.00
2018-07-03T23:17:42.932Z,97874.00
2018-07-03T23:21:45.072Z,97870.00
2018-07-03T23:25:47.246Z,97870.00
2018-07-03T23:29:49.498Z,97881.00
2018-07-03T23:33:51.684Z,97881.00
2018-07-03T23:37:54.104Z,97887.00
2018-07-03T23:41:56.260Z,97879.00
2018-07-03T23:45:59.471Z,97874.00
2018-07-03T23:50:13.228Z,97877.00
2018-07-03T23:54:27.043Z,97868.00
2018-07-03T23:58:40.659Z,97871.00
